sensor_id;sensor_type;location;lat;lon;timestamp;temperature;humidity
32965;DHT22;19317;48.226;11.686;2023-05-27T00:02:20;17.60;99.90
32965;DHT22;19317;48.226;11.686;2023-05-27T00:07:11;17.50;99.90
32965;DHT22;19317;48.226;11.686;2023-05-27T00:12:01;17.40;99.90
32965;DHT22;19317;48.226;11.686;2023-05-27T00:16:52;17.40;99.90
32965;DHT22;19317;48.226;11.686;2023-05-27T00:21:42;17.40;99.90
32965;DHT22;19317;48.226;11.686;2023-05-27T00:26:33;17.50;99.90
32965;DHT22;19317;48.226;11.686;2023-05-27T00:31:23;17.40;99.90
32965;DHT22;19317;48.226;11.686;2023-05-27T00:36:14;16.90;99.90
32965;DHT22;19317;48.226;11.686;2023-05-27T00:41:04;17.10;99.90
32965;DHT22;19317;48.226;11.686;2023-05-27T00:45:55;16.90;99.90
32965;DHT22;19317;48.226;11.686;2023-05-27T00:50:45;16.90;99.90
32965;DHT22;19317;48.226;11.686;2023-05-27T00:55:36;16.70;99.90
32965;DHT22;19317;48.226;11.686;2023-05-27T01:00:26;16.40;99.90
32965;DHT22;19317;48.226;11.686;2023-05-27T01:05:18;16.40;99.90
32965;DHT22;19317;48.226;11.686;2023-05-27T01:15:27;16.60;99.90
32965;DHT22;19317;48.226;11.686;2023-05-27T01:20:18;16.50;99.90
32965;DHT22;19317;48.226;11.686;2023-05-27T01:25:09;16.60;99.90
32965;DHT22;19317;48.226;11.686;2023-05-27T01:30:01;16.50;99.90
32965;DHT22;19317;48.226;11.686;2023-05-27T01:35:22;16.60;99.90
32965;DHT22;19317;48.226;11.686;2023-05-27T01:40:15;16.40;99.90
32965;DHT22;19317;48.226;11.686;2023-05-27T01:45:07;16.40;99.90
32965;DHT22;19317;48.226;11.686;2023-05-27T01:49:58;16.20;99.90
32965;DHT22;19317;48.226;11.686;2023-05-27T01:54:48;16.20;99.90
32965;DHT22;19317;48.226;11.686;2023-05-27T01:59:39;16.10;99.90
32965;DHT22;19317;48.226;11.686;2023-05-27T02:04:29;16.00;99.90
32965;DHT22;19317;48.226;11.686;2023-05-27T02:09:19;16.00;99.90
32965;DHT22;19317;48.226;11.686;2023-05-27T02:14:10;15.90;99.90
32965;DHT22;19317;48.226;11.686;2023-05-27T02:19:00;16.00;99.90
32965;DHT22;19317;48.226;11.686;2023-05-27T02:23:51;15.90;99.90
32965;DHT22;19317;48.226;11.686;2023-05-27T02:28:41;15.80;99.90
32965;DHT22;19317;48.226;11.686;2023-05-27T02:33:32;15.70;99.90
32965;DHT22;19317;48.226;11.686;2023-05-27T02:38:22;15.00;99.90
32965;DHT22;19317;48.226;11.686;2023-05-27T02:43:13;14.90;99.90
32965;DHT22;19317;48.226;11.686;2023-05-27T02:48:03;15.10;99.90
32965;DHT22;19317;48.226;11.686;2023-05-27T02:52:54;15.30;99.90
32965;DHT22;19317;48.226;11.686;2023-05-27T02:57:44;15.20;99.90
32965;DHT22;19317;48.226;11.686;2023-05-27T03:02:35;15.40;99.90
32965;DHT22;19317;48.226;11.686;2023-05-27T03:07:26;15.50;99.90
32965;DHT22;19317;48.226;11.686;2023-05-27T03:12:16;15.40;99.90
32965;DHT22;19317;48.226;11.686;2023-05-27T03:17:07;15.40;99.90
32965;DHT22;19317;48.226;11.686;2023-05-27T03:21:57;15.30;99.90
32965;DHT22;19317;48.226;11.686;2023-05-27T03:26:48;15.30;99.90
32965;DHT22;19317;48.226;11.686;2023-05-27T03:31:38;15.30;99.90
32965;DHT22;19317;48.226;11.686;2023-05-27T03:36:28;15.20;99.90
32965;DHT22;19317;48.226;11.686;2023-05-27T03:41:19;15.10;99.90
32965;DHT22;19317;48.226;11.686;2023-05-27T03:46:09;15.10;99.90
32965;DHT22;19317;48.226;11.686;2023-05-27T03:51:00;15.00;99.90
32965;DHT22;19317;48.226;11.686;2023-05-27T03:55:50;15.00;99.90
32965;DHT22;19317;48.226;11.686;2023-05-27T04:00:41;14.90;99.90
32965;DHT22;19317;48.226;11.686;2023-05-27T04:05:31;15.00;99.90
32965;DHT22;19317;48.226;11.686;2023-05-27T04:10:22;15.10;99.90
32965;DHT22;19317;48.226;11.686;2023-05-27T04:15:12;15.00;99.90
32965;DHT22;19317;48.226;11.686;2023-05-27T04:20:03;15.00;99.90
32965;DHT22;19317;48.226;11.686;2023-05-27T04:24:53;15.00;99.90
32965;DHT22;19317;48.226;11.686;2023-05-27T04:29:44;15.00;99.90
32965;DHT22;19317;48.226;11.686;2023-05-27T04:34:35;14.90;99.90
32965;DHT22;19317;48.226;11.686;2023-05-27T04:39:25;14.80;99.90
32965;DHT22;19317;48.226;11.686;2023-05-27T04:44:16;14.90;99.90
32965;DHT22;19317;48.226;11.686;2023-05-27T04:49:06;15.10;99.90
32965;DHT22;19317;48.226;11.686;2023-05-27T04:53:56;15.10;99.90
32965;DHT22;19317;48.226;11.686;2023-05-27T04:58:47;15.10;99.90
32965;DHT22;19317;48.226;11.686;2023-05-27T05:03:37;15.00;99.90
32965;DHT22;19317;48.226;11.686;2023-05-27T05:08:28;15.10;99.90
32965;DHT22;19317;48.226;11.686;2023-05-27T05:13:18;15.20;99.90
32965;DHT22;19317;48.226;11.686;2023-05-27T05:18:10;15.10;99.90
32965;DHT22;19317;48.226;11.686;2023-05-27T05:23:00;15.20;99.90
32965;DHT22;19317;48.226;11.686;2023-05-27T05:27:51;15.10;99.90
32965;DHT22;19317;48.226;11.686;2023-05-27T05:32:42;15.20;99.90
32965;DHT22;19317;48.226;11.686;2023-05-27T05:37:32;15.30;99.90
32965;DHT22;19317;48.226;11.686;2023-05-27T05:42:23;15.10;99.90
32965;DHT22;19317;48.226;11.686;2023-05-27T05:47:13;15.10;99.90
32965;DHT22;19317;48.226;11.686;2023-05-27T05:52:04;15.20;99.90
32965;DHT22;19317;48.226;11.686;2023-05-27T05:56:54;15.30;99.90
32965;DHT22;19317;48.226;11.686;2023-05-27T06:01:45;15.60;99.90
32965;DHT22;19317;48.226;11.686;2023-05-27T06:06:35;15.70;99.90
32965;DHT22;19317;48.226;11.686;2023-05-27T06:11:26;15.70;99.90
32965;DHT22;19317;48.226;11.686;2023-05-27T06:16:16;15.90;99.90
32965;DHT22;19317;48.226;11.686;2023-05-27T06:21:07;16.00;99.90
32965;DHT22;19317;48.226;11.686;2023-05-27T06:25:57;15.90;99.90
32965;DHT22;19317;48.226;11.686;2023-05-27T06:30:48;15.90;99.90
32965;DHT22;19317;48.226;11.686;2023-05-27T06:35:38;16.10;99.90
32965;DHT22;19317;48.226;11.686;2023-05-27T06:40:29;16.20;99.90
32965;DHT22;19317;48.226;11.686;2023-05-27T06:45:19;16.40;99.90
32965;DHT22;19317;48.226;11.686;2023-05-27T06:50:10;16.20;99.90
32965;DHT22;19317;48.226;11.686;2023-05-27T06:55:00;16.40;99.90
32965;DHT22;19317;48.226;11.686;2023-05-27T06:59:51;16.50;99.90
32965;DHT22;19317;48.226;11.686;2023-05-27T07:04:41;16.60;99.90
32965;DHT22;19317;48.226;11.686;2023-05-27T07:09:32;16.60;99.90
32965;DHT22;19317;48.226;11.686;2023-05-27T07:14:22;16.60;99.90
32965;DHT22;19317;48.226;11.686;2023-05-27T07:19:12;16.70;99.90
32965;DHT22;19317;48.226;11.686;2023-05-27T07:24:03;16.80;99.90
32965;DHT22;19317;48.226;11.686;2023-05-27T07:28:54;17.00;99.90
32965;DHT22;19317;48.226;11.686;2023-05-27T07:33:44;17.10;99.90
32965;DHT22;19317;48.226;11.686;2023-05-27T07:38:35;17.30;99.90
32965;DHT22;19317;48.226;11.686;2023-05-27T07:43:25;17.30;99.90
32965;DHT22;19317;48.226;11.686;2023-05-27T07:48:16;17.40;99.90
32965;DHT22;19317;48.226;11.686;2023-05-27T07:53:06;17.80;99.90
32965;DHT22;19317;48.226;11.686;2023-05-27T07:57:57;17.90;99.90
32965;DHT22;19317;48.226;11.686;2023-05-27T08:02:47;18.00;99.90
32965;DHT22;19317;48.226;11.686;2023-05-27T08:07:37;18.20;99.90
32965;DHT22;19317;48.226;11.686;2023-05-27T08:12:28;18.20;99.90
32965;DHT22;19317;48.226;11.686;2023-05-27T08:17:18;18.30;99.90
32965;DHT22;19317;48.226;11.686;2023-05-27T08:22:09;18.40;99.90
32965;DHT22;19317;48.226;11.686;2023-05-27T08:26:59;18.30;99.90
32965;DHT22;19317;48.226;11.686;2023-05-27T08:31:50;18.50;99.90
32965;DHT22;19317;48.226;11.686;2023-05-27T08:36:40;18.70;99.90
32965;DHT22;19317;48.226;11.686;2023-05-27T08:41:31;18.60;99.90
32965;DHT22;19317;48.226;11.686;2023-05-27T08:46:22;18.70;99.90
32965;DHT22;19317;48.226;11.686;2023-05-27T08:51:13;18.80;99.90
32965;DHT22;19317;48.226;11.686;2023-05-27T08:56:08;18.90;99.90
32965;DHT22;19317;48.226;11.686;2023-05-27T09:01:00;18.90;99.90
32965;DHT22;19317;48.226;11.686;2023-05-27T09:05:51;18.90;99.90
32965;DHT22;19317;48.226;11.686;2023-05-27T09:10:42;19.00;99.90
32965;DHT22;19317;48.226;11.686;2023-05-27T09:15:33;19.00;99.90
32965;DHT22;19317;48.226;11.686;2023-05-27T09:20:25;19.00;99.90
32965;DHT22;19317;48.226;11.686;2023-05-27T09:25:16;19.20;99.90
32965;DHT22;19317;48.226;11.686;2023-05-27T09:30:08;19.30;99.90
32965;DHT22;19317;48.226;11.686;2023-05-27T09:35:00;19.40;99.90
32965;DHT22;19317;48.226;11.686;2023-05-27T09:39:53;19.40;99.90
32965;DHT22;19317;48.226;11.686;2023-05-27T09:44:45;19.50;99.90
32965;DHT22;19317;48.226;11.686;2023-05-27T09:49:37;19.50;99.90
32965;DHT22;19317;48.226;11.686;2023-05-27T09:54:28;19.60;99.90
32965;DHT22;19317;48.226;11.686;2023-05-27T09:59:18;19.70;99.90
32965;DHT22;19317;48.226;11.686;2023-05-27T10:04:09;19.80;99.90
32965;DHT22;19317;48.226;11.686;2023-05-27T10:09:01;19.90;99.90
32965;DHT22;19317;48.226;11.686;2023-05-27T10:13:52;20.00;99.90
32965;DHT22;19317;48.226;11.686;2023-05-27T10:18:43;20.10;99.90
32965;DHT22;19317;48.226;11.686;2023-05-27T10:23:33;20.20;99.90
32965;DHT22;19317;48.226;11.686;2023-05-27T10:33:14;20.10;99.90
32965;DHT22;19317;48.226;11.686;2023-05-27T10:38:17;20.30;99.90
32965;DHT22;19317;48.226;11.686;2023-05-27T10:43:18;20.30;99.90
32965;DHT22;19317;48.226;11.686;2023-05-27T10:48:21;20.40;99.90
32965;DHT22;19317;48.226;11.686;2023-05-27T10:53:20;20.40;99.90
32965;DHT22;19317;48.226;11.686;2023-05-27T10:58:11;20.60;99.90
32965;DHT22;19317;48.226;11.686;2023-05-27T11:03:02;20.80;99.90
32965;DHT22;19317;48.226;11.686;2023-05-27T11:07:52;20.70;99.90
32965;DHT22;19317;48.226;11.686;2023-05-27T11:12:44;20.70;99.90
32965;DHT22;19317;48.226;11.686;2023-05-27T11:17:34;20.80;99.90
32965;DHT22;19317;48.226;11.686;2023-05-27T11:22:25;20.90;99.90
32965;DHT22;19317;48.226;11.686;2023-05-27T11:27:15;20.90;99.90
32965;DHT22;19317;48.226;11.686;2023-05-27T11:32:06;20.90;99.90
32965;DHT22;19317;48.226;11.686;2023-05-27T11:37:04;20.90;99.90
32965;DHT22;19317;48.226;11.686;2023-05-27T11:41:54;21.10;99.90
32965;DHT22;19317;48.226;11.686;2023-05-27T11:46:46;21.10;99.90
32965;DHT22;19317;48.226;11.686;2023-05-27T11:51:39;21.30;99.90
32965;DHT22;19317;48.226;11.686;2023-05-27T11:56:30;21.20;99.90
32965;DHT22;19317;48.226;11.686;2023-05-27T12:01:21;21.20;99.90
32965;DHT22;19317;48.226;11.686;2023-05-27T12:06:11;21.40;99.90
32965;DHT22;19317;48.226;11.686;2023-05-27T12:11:02;21.30;99.90
32965;DHT22;19317;48.226;11.686;2023-05-27T12:15:52;21.60;99.90
32965;DHT22;19317;48.226;11.686;2023-05-27T12:20:44;21.50;99.90
32965;DHT22;19317;48.226;11.686;2023-05-27T12:25:34;21.50;99.90
32965;DHT22;19317;48.226;11.686;2023-05-27T12:30:25;21.70;99.90
32965;DHT22;19317;48.226;11.686;2023-05-27T12:35:15;21.80;99.90
32965;DHT22;19317;48.226;11.686;2023-05-27T12:40:07;21.80;99.90
32965;DHT22;19317;48.226;11.686;2023-05-27T12:44:58;21.80;99.90
32965;DHT22;19317;48.226;11.686;2023-05-27T12:49:48;21.90;99.90
32965;DHT22;19317;48.226;11.686;2023-05-27T12:54:39;22.00;99.90
32965;DHT22;19317;48.226;11.686;2023-05-27T12:59:29;22.00;99.90
32965;DHT22;19317;48.226;11.686;2023-05-27T13:04:20;22.00;99.90
32965;DHT22;19317;48.226;11.686;2023-05-27T13:09:10;22.30;99.90
32965;DHT22;19317;48.226;11.686;2023-05-27T13:14:00;22.30;99.90
32965;DHT22;19317;48.226;11.686;2023-05-27T13:18:51;22.20;99.90
32965;DHT22;19317;48.226;11.686;2023-05-27T13:23:41;22.50;99.90
32965;DHT22;19317;48.226;11.686;2023-05-27T13:28:32;22.50;99.90
32965;DHT22;19317;48.226;11.686;2023-05-27T13:33:22;22.60;99.90
32965;DHT22;19317;48.226;11.686;2023-05-27T13:38:13;22.50;99.30
32965;DHT22;19317;48.226;11.686;2023-05-27T13:43:03;22.80;99.90
32965;DHT22;19317;48.226;11.686;2023-05-27T13:47:54;22.50;99.00
32965;DHT22;19317;48.226;11.686;2023-05-27T13:52:44;22.70;98.40
32965;DHT22;19317;48.226;11.686;2023-05-27T13:57:35;22.90;99.00
32965;DHT22;19317;48.226;11.686;2023-05-27T14:02:25;22.70;99.20
32965;DHT22;19317;48.226;11.686;2023-05-27T14:07:15;22.90;98.20
32965;DHT22;19317;48.226;11.686;2023-05-27T14:12:06;22.80;97.60
32965;DHT22;19317;48.226;11.686;2023-05-27T14:16:56;22.80;97.80
32965;DHT22;19317;48.226;11.686;2023-05-27T14:21:47;23.00;96.80
32965;DHT22;19317;48.226;11.686;2023-05-27T14:26:37;23.20;97.40
32965;DHT22;19317;48.226;11.686;2023-05-27T14:31:28;23.40;97.10
32965;DHT22;19317;48.226;11.686;2023-05-27T14:36:18;23.50;97.70
32965;DHT22;19317;48.226;11.686;2023-05-27T14:41:09;24.00;97.80
32965;DHT22;19317;48.226;11.686;2023-05-27T14:45:59;23.50;96.90
32965;DHT22;19317;48.226;11.686;2023-05-27T14:50:50;23.30;95.80
32965;DHT22;19317;48.226;11.686;2023-05-27T14:55:40;23.30;96.10
32965;DHT22;19317;48.226;11.686;2023-05-27T15:00:30;23.30;95.50
32965;DHT22;19317;48.226;11.686;2023-05-27T15:05:21;23.20;94.40
32965;DHT22;19317;48.226;11.686;2023-05-27T15:10:11;23.70;96.40
32965;DHT22;19317;48.226;11.686;2023-05-27T15:15:02;23.70;95.50
32965;DHT22;19317;48.226;11.686;2023-05-27T15:19:52;24.00;95.90
32965;DHT22;19317;48.226;11.686;2023-05-27T15:24:43;23.70;94.30
32965;DHT22;19317;48.226;11.686;2023-05-27T15:29:33;23.90;94.90
32965;DHT22;19317;48.226;11.686;2023-05-27T15:34:24;23.80;95.10
32965;DHT22;19317;48.226;11.686;2023-05-27T15:39:14;24.00;93.80
32965;DHT22;19317;48.226;11.686;2023-05-27T15:44:04;24.30;94.00
32965;DHT22;19317;48.226;11.686;2023-05-27T15:48:55;24.10;94.00
32965;DHT22;19317;48.226;11.686;2023-05-27T15:53:45;24.00;93.50
32965;DHT22;19317;48.226;11.686;2023-05-27T15:58:36;24.10;92.60
32965;DHT22;19317;48.226;11.686;2023-05-27T16:03:26;24.20;91.30
32965;DHT22;19317;48.226;11.686;2023-05-27T16:08:17;24.20;92.70
32965;DHT22;19317;48.226;11.686;2023-05-27T16:13:07;24.00;92.40
32965;DHT22;19317;48.226;11.686;2023-05-27T16:17:58;24.10;92.80
32965;DHT22;19317;48.226;11.686;2023-05-27T16:22:48;24.30;92.80
32965;DHT22;19317;48.226;11.686;2023-05-27T16:27:39;24.20;91.90
32965;DHT22;19317;48.226;11.686;2023-05-27T16:32:29;24.20;91.90
32965;DHT22;19317;48.226;11.686;2023-05-27T16:37:20;24.60;92.30
32965;DHT22;19317;48.226;11.686;2023-05-27T16:42:10;24.50;91.60
32965;DHT22;19317;48.226;11.686;2023-05-27T16:47:00;24.00;90.70
32965;DHT22;19317;48.226;11.686;2023-05-27T16:51:51;24.10;90.10
32965;DHT22;19317;48.226;11.686;2023-05-27T16:56:41;23.90;90.70
32965;DHT22;19317;48.226;11.686;2023-05-27T17:01:32;23.90;90.90
32965;DHT22;19317;48.226;11.686;2023-05-27T17:06:22;24.00;90.70
32965;DHT22;19317;48.226;11.686;2023-05-27T17:11:13;24.10;91.00
32965;DHT22;19317;48.226;11.686;2023-05-27T17:16:03;24.00;90.80
32965;DHT22;19317;48.226;11.686;2023-05-27T17:20:54;24.00;90.30
32965;DHT22;19317;48.226;11.686;2023-05-27T17:25:44;23.70;91.10
32965;DHT22;19317;48.226;11.686;2023-05-27T17:30:35;23.50;92.20
32965;DHT22;19317;48.226;11.686;2023-05-27T17:35:25;23.10;91.50
32965;DHT22;19317;48.226;11.686;2023-05-27T17:40:16;23.30;91.20
32965;DHT22;19317;48.226;11.686;2023-05-27T17:45:06;23.10;91.50
32965;DHT22;19317;48.226;11.686;2023-05-27T17:49:57;23.10;91.80
32965;DHT22;19317;48.226;11.686;2023-05-27T17:54:48;23.00;91.10
32965;DHT22;19317;48.226;11.686;2023-05-27T17:59:38;23.10;91.10
32965;DHT22;19317;48.226;11.686;2023-05-27T18:04:28;23.00;91.50
32965;DHT22;19317;48.226;11.686;2023-05-27T18:09:19;22.90;91.90
32965;DHT22;19317;48.226;11.686;2023-05-27T18:14:09;22.70;92.20
32965;DHT22;19317;48.226;11.686;2023-05-27T18:19:00;22.40;92.80
32965;DHT22;19317;48.226;11.686;2023-05-27T18:23:50;22.60;92.60
32965;DHT22;19317;48.226;11.686;2023-05-27T18:28:41;22.60;93.50
32965;DHT22;19317;48.226;11.686;2023-05-27T18:33:31;22.80;93.10
32965;DHT22;19317;48.226;11.686;2023-05-27T18:38:22;22.90;93.70
32965;DHT22;19317;48.226;11.686;2023-05-27T18:43:12;22.80;93.20
32965;DHT22;19317;48.226;11.686;2023-05-27T18:48:03;22.50;93.20
32965;DHT22;19317;48.226;11.686;2023-05-27T18:52:53;22.50;93.40
32965;DHT22;19317;48.226;11.686;2023-05-27T18:57:43;22.40;93.40
32965;DHT22;19317;48.226;11.686;2023-05-27T19:02:34;22.20;93.70
32965;DHT22;19317;48.226;11.686;2023-05-27T19:07:24;22.30;93.60
32965;DHT22;19317;48.226;11.686;2023-05-27T19:12:15;22.20;93.80
32965;DHT22;19317;48.226;11.686;2023-05-27T19:17:05;22.00;94.00
32965;DHT22;19317;48.226;11.686;2023-05-27T19:21:56;21.70;94.50
32965;DHT22;19317;48.226;11.686;2023-05-27T19:26:46;21.70;94.40
32965;DHT22;19317;48.226;11.686;2023-05-27T19:31:37;21.70;94.30
32965;DHT22;19317;48.226;11.686;2023-05-27T19:36:27;20.80;96.40
32965;DHT22;19317;48.226;11.686;2023-05-27T19:41:18;21.00;96.10
32965;DHT22;19317;48.226;11.686;2023-05-27T19:46:08;21.00;96.50
32965;DHT22;19317;48.226;11.686;2023-05-27T19:50:59;20.90;96.80
32965;DHT22;19317;48.226;11.686;2023-05-27T19:55:49;20.90;97.70
32965;DHT22;19317;48.226;11.686;2023-05-27T20:00:40;20.90;97.10
32965;DHT22;19317;48.226;11.686;2023-05-27T20:05:31;20.70;96.70
32965;DHT22;19317;48.226;11.686;2023-05-27T20:10:21;20.60;96.70
32965;DHT22;19317;48.226;11.686;2023-05-27T20:15:13;20.70;96.50
32965;DHT22;19317;48.226;11.686;2023-05-27T20:20:05;20.10;97.30
32965;DHT22;19317;48.226;11.686;2023-05-27T20:24:55;20.30;97.70
32965;DHT22;19317;48.226;11.686;2023-05-27T20:29:46;20.30;97.80
32965;DHT22;19317;48.226;11.686;2023-05-27T20:34:36;20.20;98.00
32965;DHT22;19317;48.226;11.686;2023-05-27T20:39:27;20.20;98.00
32965;DHT22;19317;48.226;11.686;2023-05-27T20:44:17;20.00;98.20
32965;DHT22;19317;48.226;11.686;2023-05-27T20:49:07;19.80;98.60
32965;DHT22;19317;48.226;11.686;2023-05-27T20:53:58;19.70;98.80
32965;DHT22;19317;48.226;11.686;2023-05-27T20:58:48;19.70;99.30
32965;DHT22;19317;48.226;11.686;2023-05-27T21:03:39;19.50;99.60
32965;DHT22;19317;48.226;11.686;2023-05-27T21:08:29;19.50;99.90
32965;DHT22;19317;48.226;11.686;2023-05-27T21:13:20;19.50;99.90
32965;DHT22;19317;48.226;11.686;2023-05-27T21:18:10;19.40;99.90
32965;DHT22;19317;48.226;11.686;2023-05-27T21:23:00;18.90;99.90
32965;DHT22;19317;48.226;11.686;2023-05-27T21:27:51;19.00;99.90
32965;DHT22;19317;48.226;11.686;2023-05-27T21:32:41;18.80;99.90
32965;DHT22;19317;48.226;11.686;2023-05-27T21:37:32;18.80;99.90
32965;DHT22;19317;48.226;11.686;2023-05-27T21:42:22;18.10;99.90
32965;DHT22;19317;48.226;11.686;2023-05-27T21:47:13;18.30;99.90
32965;DHT22;19317;48.226;11.686;2023-05-27T21:52:03;18.60;99.90
32965;DHT22;19317;48.226;11.686;2023-05-27T21:56:54;18.20;99.90
32965;DHT22;19317;48.226;11.686;2023-05-27T22:01:44;18.20;99.90
32965;DHT22;19317;48.226;11.686;2023-05-27T22:06:39;18.20;99.90
32965;DHT22;19317;48.226;11.686;2023-05-27T22:11:30;18.00;99.90
32965;DHT22;19317;48.226;11.686;2023-05-27T22:16:20;17.80;99.90
32965;DHT22;19317;48.226;11.686;2023-05-27T22:21:11;17.80;99.90
32965;DHT22;19317;48.226;11.686;2023-05-27T22:26:01;17.60;99.90
32965;DHT22;19317;48.226;11.686;2023-05-27T22:30:52;17.60;99.90
32965;DHT22;19317;48.226;11.686;2023-05-27T22:35:42;17.40;99.90
32965;DHT22;19317;48.226;11.686;2023-05-27T22:40:32;17.60;99.90
32965;DHT22;19317;48.226;11.686;2023-05-27T22:45:23;17.50;99.90
32965;DHT22;19317;48.226;11.686;2023-05-27T22:50:13;17.10;99.90
32965;DHT22;19317;48.226;11.686;2023-05-27T22:55:04;17.40;99.90
32965;DHT22;19317;48.226;11.686;2023-05-27T22:59:55;17.50;99.90
32965;DHT22;19317;48.226;11.686;2023-05-27T23:04:46;17.50;99.90
32965;DHT22;19317;48.226;11.686;2023-05-27T23:09:36;17.30;99.90
32965;DHT22;19317;48.226;11.686;2023-05-27T23:14:26;17.30;99.90
32965;DHT22;19317;48.226;11.686;2023-05-27T23:19:17;17.20;99.90
32965;DHT22;19317;48.226;11.686;2023-05-27T23:24:07;16.90;99.90
32965;DHT22;19317;48.226;11.686;2023-05-27T23:28:58;16.80;99.90
32965;DHT22;19317;48.226;11.686;2023-05-27T23:33:48;16.90;99.90
32965;DHT22;19317;48.226;11.686;2023-05-27T23:38:39;16.80;99.90
32965;DHT22;19317;48.226;11.686;2023-05-27T23:43:29;16.70;99.90
32965;DHT22;19317;48.226;11.686;2023-05-27T23:48:20;16.60;99.90
32965;DHT22;19317;48.226;11.686;2023-05-27T23:53:10;15.80;99.90
32965;DHT22;19317;48.226;11.686;2023-05-27T23:58:01;15.20;99.90
